B83103 VNPL-VNLK
Flight info
| Callsign | B83103 |
|---|---|
| Flight time | 0h 9m |
| Altitude | 12500 |
| Route | VFR DCT |
| Aircraft | DA42/L-SBDGRY/S |
Departure
| Time | 2025-11-03 13:54 |
|---|---|
| Airport | Phaplu Airport (VNPL) |
Arrival
| Time | 2025-11-03 14:03 |
|---|---|
| Airport | Tenzing-Hillary Airport (VNLK) |
| Time | Latitude | Longitude | Altitude | Speed | Heading |
|---|---|---|---|---|---|
| 2025-11-03 13:44 | 27.51747 | 86.58423 | 8173 ft | 0 kts | 356° |
| 2025-11-03 13:50 | 27.51718 | 86.58436 | 8175 ft | 12 kts | 174° |
| 2025-11-03 13:50 | 27.51719 | 86.58470 | 8173 ft | 18 kts | 25° |
| 2025-11-03 13:51 | 27.52080 | 86.58631 | 8135 ft | 7 kts | 246° |
| 2025-11-03 13:51 | 27.51900 | 86.58557 | 8156 ft | 48 kts | 202° |
| 2025-11-03 13:52 | 27.50817 | 86.58288 | 8261 ft | 108 kts | 192° |
| 2025-11-03 13:52 | 27.49428 | 86.57359 | 8695 ft | 117 kts | 220° |
| 2025-11-03 13:53 | 27.48000 | 86.56576 | 9272 ft | 119 kts | 177° |
| 2025-11-03 13:53 | 27.46345 | 86.57041 | 9785 ft | 129 kts | 161° |
| 2025-11-03 13:54 | 27.44431 | 86.57959 | 9904 ft | 155 kts | 150° |
| 2025-11-03 13:54 | 27.43112 | 86.59889 | 10087 ft | 167 kts | 111° |
| 2025-11-03 13:55 | 27.43011 | 86.61139 | 10378 ft | 154 kts | 74° |
| 2025-11-03 13:55 | 27.45771 | 86.61530 | 11024 ft | 149 kts | 354° |
| 2025-11-03 13:56 | 27.47693 | 86.61738 | 11710 ft | 133 kts | 22° |
| 2025-11-03 13:56 | 27.49373 | 86.62610 | 12091 ft | 147 kts | 25° |
| 2025-11-03 13:57 | 27.51324 | 86.63801 | 12096 ft | 169 kts | 30° |
| 2025-11-03 13:57 | 27.53251 | 86.65252 | 12102 ft | 165 kts | 35° |
| 2025-11-03 13:58 | 27.55135 | 86.66702 | 12118 ft | 161 kts | 30° |
| 2025-11-03 13:58 | 27.56990 | 86.68138 | 12117 ft | 159 kts | 33° |
| 2025-11-03 13:59 | 27.58980 | 86.68924 | 11973 ft | 150 kts | 14° |
| 2025-11-03 14:00 | 27.61859 | 86.70086 | 10902 ft | 144 kts | 25° |
| 2025-11-03 14:00 | 27.63688 | 86.70405 | 10405 ft | 134 kts | 359° |
| 2025-11-03 14:00 | 27.64627 | 86.70311 | 10039 ft | 139 kts | 350° |
| 2025-11-03 14:01 | 27.66422 | 86.70437 | 9477 ft | 118 kts | 18° |
| 2025-11-03 14:01 | 27.67707 | 86.71207 | 9014 ft | 98 kts | 46° |
| 2025-11-03 14:02 | 27.68389 | 86.72396 | 9061 ft | 86 kts | 60° |
| 2025-11-03 14:02 | 27.68739 | 86.73072 | 9295 ft | 6 kts | 61° |
| 2025-11-03 14:03 | 27.68757 | 86.73109 | 9318 ft | 5 kts | 61° |
| 2025-11-03 14:04 | 27.68730 | 86.73178 | 9331 ft | 5 kts | 238° |
| 2025-11-03 14:04 | 27.68740 | 86.73193 | 9333 ft | 0 kts | 235° |